Flight Track Log - Related Links

Times and Time Zones

All times are in EDT time to prevent confusion due to time zone crossing. See the JST19 flight status page for this flight to view local times or setup timezone preferences in your user account.

Time Position Orientation Groundspeed Altitude Reporting Facility
EDT Latitude Longitude Course Direction KTS MPH feet Rate Location/Type
Fri 08:33:11 PM -28.2088 153.5383 81° East 155 178 2,500  Level Aus ATC (RADAR)
Fri 08:34:12 PM -28.2010 153.5920 58° Northeast 215 247 3,100 776 Climbing FlightAware ADS-B
Fri 08:34:36 PM -28.1842 153.6225 355° North 233 268 3,600 1,842 Climbing Aus ATC (RADAR)
Fri 08:36:06 PM -28.0656 153.6116 350° North 301 346 6,600 2,360 Climbing Aus ATC (RADAR)
Fri 08:37:06 PM -27.9734 153.5930 349° North 331 381 9,500 2,960 Climbing Aus ATC (RADAR)
Fri 08:37:21 PM -27.9504 153.5882 350° North 331 381 10,300 2,600 Climbing Aus ATC (RADAR)
Fri 08:38:36 PM -27.8295 153.5647 350° North 353 406 13,400 2,343 Climbing Aus ATC (RADAR)
Fri 08:39:06 PM -27.7788 153.5551 350° North 364 419 14,400 1,860 Climbing Aus ATC (RADAR)
Fri 08:40:16 PM -27.6550 153.5309 350° North 392 451 16,500 1,933 Climbing Aus ATC (RADAR)
Fri 08:40:36 PM -27.6183 153.5237 350° North 396 456 17,300 2,400 Climbing Aus ATC (RADAR)
Fri 08:41:26 PM -27.5270 153.5063 350° North 396 456 19,300 2,314 Climbing Aus ATC (RADAR)
Fri 08:41:46 PM -27.4902 153.4992 349° North 398 458 20,000 2,111 Climbing Aus ATC (RADAR)
Fri 08:42:20 PM -27.4259 153.4855 340° North 398 458 21,200 1,976 Climbing Aus ATC (RADAR)
Fri 08:43:11 PM -27.3396 153.4495 340° North 391 450 22,800 1,906 Climbing Aus ATC (RADAR)
Fri 08:43:45 PM -27.2784 153.4244 340° North 397 457 23,900 1,915 Climbing Aus ATC (RADAR)
Fri 08:44:45 PM -27.1734 153.3819 339° North 395 455 25,800 1,935 Climbing Aus ATC (RADAR)
Fri 08:44:47 PM -27.1600 153.3760 340° North 398 458 25,900 1,920 Climbing FlightAware ADS-B
Fri 08:45:35 PM -27.0873 153.3468 340° North 390 449 27,400 1,224 Climbing Aus ATC (RADAR)
Fri 08:46:25 PM -27.0012 153.3114 340° North 395 455 27,900 776 Climbing Aus ATC (RADAR)
Fri 08:47:00 PM -26.9395 153.2864 340° North 401 461 28,500 1,067 Climbing Aus ATC (RADAR)
Fri 08:47:55 PM -26.8429 153.2474 340° North 399 459 29,500 1,029 Climbing Aus ATC (RADAR)
Fri 08:48:10 PM -26.8166 153.2369 340° North 399 459 29,700 720 Climbing Aus ATC (RADAR)
Fri 08:48:45 PM -26.7549 153.2116 340° North 402 463 30,100 692 Climbing Aus ATC (RADAR)
Fri 08:50:20 PM -26.5841 153.1428 341° North 413 475 31,200 709 Climbing Aus ATC (RADAR)
Fri 08:50:35 PM -26.5567 153.1320 340° North 415 478 31,400 480 Climbing Aus ATC (RADAR)
Fri 08:51:10 PM -26.4928 153.1061 340° North 418 481 31,600 494 Climbing Aus ATC (RADAR)
Fri 08:52:00 PM -26.4000 153.0690 340° North 422 486 32,100 776 Climbing Aus ATC (RADAR)
Fri 08:52:35 PM -26.3351 153.0430 340° North 423 487 32,700 847 Climbing Aus ATC (RADAR)
Fri 08:53:25 PM -26.2425 153.0064 340° North 421 484 33,300 706 Climbing Aus ATC (RADAR)
Fri 08:54:00 PM -26.1781 152.9806 340° North 420 483 33,700 545 Climbing Aus ATC (RADAR)
Fri 08:55:04 PM -26.0571 152.9321 340° North 426 490 34,200 456 Climbing Aus ATC (RADAR)
Fri 08:55:19 PM -26.0289 152.9205 340° North 430 495 34,300 720 Climbing Aus ATC (RADAR)
Fri 08:55:54 PM -25.9636 152.8947 340° North 426 490 34,800 733 Climbing Aus ATC (RADAR)
Fri 08:56:49 PM -25.8608 152.8541 341° North 423 487 35,400 706 Climbing Aus ATC (RADAR)
Fri 08:57:19 PM -25.8055 152.8324 340° North 420 483 35,800 706 Climbing Aus ATC (RADAR)
Fri 08:58:14 PM -25.7048 152.7925 341° North 417 480 36,400 686 Climbing Aus ATC (RADAR)
Fri 08:58:29 PM -25.6775 152.7820 340° North 415 478 36,600 720 Climbing Aus ATC (RADAR)
Fri 08:59:04 PM -25.6139 152.7567 340° North 414 476 37,000 467 Climbing Aus ATC (RADAR)
Fri 08:59:59 PM -25.5143 152.7172 340° North 415 478 37,300 257 Climbing Aus ATC (RADAR)
Fri 09:00:14 PM -25.4869 152.7063 340° North 416 479 37,300 360 Level Aus ATC (RADAR)
Fri 09:00:49 PM -25.4230 152.6812 340° North 417 480 37,600 565 Climbing Aus ATC (RADAR)
Fri 09:01:39 PM -25.3317 152.6453 341° North 417 480 38,100 353 Climbing Aus ATC (RADAR)
Fri 09:02:14 PM -25.2679 152.6206 341° North 417 480 38,100  Level Aus ATC (RADAR)
Fri 09:03:09 PM -25.1675 152.5813 341° North 418 481 38,100  Level Aus ATC (RADAR)
Fri 09:03:24 PM -25.1401 152.5707 340° North 418 481 38,100  Level Aus ATC (RADAR)
Fri 09:04:04 PM -25.0674 152.5418 341° North 415 478 38,100  Level Aus ATC (RADAR)
Fri 09:05:09 PM -24.9488 152.4959 341° North 416 479 38,100  Level Aus ATC (RADAR)
Fri 09:05:24 PM -24.9215 152.4854 340° North 415 478 38,100  Level Aus ATC (RADAR)
Fri 09:05:59 PM -24.8584 152.4605 340° North 413 475 38,100  Level Aus ATC (RADAR)
Fri 09:06:53 PM -24.7590 152.4218 340° North 414 476 38,100  Level Aus ATC (RADAR)
Fri 09:07:29 PM -24.6960 152.3971 341° North 412 474 38,100 67 Level Aus ATC (RADAR)
Fri 09:08:23 PM -24.5958 152.3587 341° North 415 478 38,200 67 Climbing Aus ATC (RADAR)
Fri 09:08:58 PM -24.5320 152.3341 340° North 417 480 38,200  Level Aus ATC (RADAR)
Fri 09:09:38 PM -24.4596 152.3058 341° North 415 478 38,200  Level Aus ATC (RADAR)
Fri 09:10:28 PM -24.3683 152.2704 341° North 418 481 38,200  Level Aus ATC (RADAR)
Fri 09:11:03 PM -24.3046 152.2462 341° North 417 480 38,200  Level Aus ATC (RADAR)
Fri 09:11:53 PM -24.2131 152.2107 341° North 420 483 38,200  Level Aus ATC (RADAR)
Fri 09:12:28 PM -24.1490 152.1862 341° North 419 482 38,200  Level Aus ATC (RADAR)
Fri 09:13:23 PM -24.0475 152.1470 341° North 422 486 38,200  Level Aus ATC (RADAR)
Fri 09:13:38 PM -24.0200 152.1364 341° North 421 484 38,200  Level Aus ATC (RADAR)
Fri 09:14:13 PM -23.9555 152.1118 341° North 421 484 38,200  Level Aus ATC (RADAR)
Fri 09:15:08 PM -23.8549 152.0732 340° North 419 482 38,200  Level Aus ATC (RADAR)
Fri 09:15:28 PM -23.8183 152.0591 341° North 419 482 38,200  Level Aus ATC (RADAR)
Fri 09:16:03 PM -23.7540 152.0349 341° North 419 482 38,200  Level Aus ATC (RADAR)
Fri 09:16:52 PM -23.6622 151.9994 341° North 421 484 38,200  Level Aus ATC (RADAR)
Fri 09:17:27 PM -23.5980 151.9749 341° North 421 484 38,200  Level Aus ATC (RADAR)
Fri 09:18:22 PM -23.4968 151.9365 340° North 420 483 38,200  Level Aus ATC (RADAR)
Fri 09:18:37 PM -23.4691 151.9257 341° North 421 484 38,200  Level Aus ATC (RADAR)
Fri 09:19:17 PM -23.3951 151.8976 341° North 422 486 38,200  Level Aus ATC (RADAR)
Fri 09:20:22 PM -23.2751 151.8520 341° North 420 483 38,200  Level Aus ATC (RADAR)
Fri 09:20:37 PM -23.2473 151.8416 341° North 421 484 38,200  Level Aus ATC (RADAR)
Fri 09:21:12 PM -23.1826 151.8173 341° North 423 487 38,200  Level Aus ATC (RADAR)
Fri 09:22:07 PM -23.0809 151.7788 341° North 424 488 38,200  Level Aus ATC (RADAR)
Fri 09:22:42 PM -23.0161 151.7541 341° North 423 487 38,200  Level Aus ATC (RADAR)
Fri 09:23:37 PM -22.9139 151.7153 341° North 426 490 38,200  Level Aus ATC (RADAR)
Fri 09:23:52 PM -22.8860 151.7048 341° North 426 490 38,200  Level Aus ATC (RADAR)
Fri 09:24:27 PM -22.8206 151.6802 341° North 427 491 38,200  Level Aus ATC (RADAR)
Fri 09:25:22 PM -22.7171 151.6414 341° North 430 495 38,200  Level Aus ATC (RADAR)
Fri 09:25:37 PM -22.6889 151.6306 341° North 430 495 38,200  Level Aus ATC (RADAR)
Fri 09:26:16 PM -22.6130 151.6023 341° North 431 496 38,200  Level Aus ATC (RADAR)
Fri 09:27:11 PM -22.5081 151.5634 342° North 434 499 38,200  Level Aus ATC (RADAR)
Fri 09:27:46 PM -22.4412 151.5392 342° North 434 499 38,200  Level Aus ATC (RADAR)
Fri 09:28:37 PM -22.3451 151.5047 342° North 437 503 38,200  Level Aus ATC (RADAR)
Fri 09:29:12 PM -22.2780 151.4808 341° North 436 502 38,200  Level Aus ATC (RADAR)
Fri 09:30:01 PM -22.1821 151.4462 342° North 438 504 38,200  Level Aus ATC (RADAR)
Fri 09:30:46 PM -22.0957 151.4154 342° North 438 504 38,200  Level Aus ATC (RADAR)
Fri 09:31:21 PM -22.0288 151.3914 342° North 436 502 38,200  Level Aus ATC (RADAR)
Fri 09:32:16 PM -21.9224 151.3533 342° North 439 505 38,200  Level Aus ATC (RADAR)
Fri 09:32:31 PM -21.8934 151.3428 342° North 440 506 38,200  Level Aus ATC (RADAR)
Fri 09:33:06 PM -21.8253 151.3184 342° North 443 510 38,200  Level Aus ATC (RADAR)
Fri 09:34:01 PM -21.7186 151.2810 342° North 440 506 38,200  Level Aus ATC (RADAR)
Fri 09:34:36 PM -21.6507 151.2569 342° North 440 506 38,200  Level Aus ATC (RADAR)
Fri 09:35:31 PM -21.5443 151.2189 341° North 440 506 38,200  Level Aus ATC (RADAR)
Fri 09:35:46 PM -21.5156 151.2085 342° North 438 504 38,200  Level Aus ATC (RADAR)
Fri 09:36:21 PM -21.4475 151.1842 342° North 442 509 38,200  Level Aus ATC (RADAR)
Fri 09:37:20 PM -21.3305 151.1428 342° North 444 511 38,200  Level Aus ATC (RADAR)
Fri 09:37:55 PM -21.2622 151.1186 342° North 445 512 38,200  Level Aus ATC (RADAR)
Fri 09:38:55 PM -21.1446 151.0770 342° North 446 513 38,200  Level Aus ATC (RADAR)
Fri 09:39:31 PM -21.0755 151.0527 342° North 449 517 38,200  Level Aus ATC (RADAR)
Fri 09:41:00 PM -20.8985 150.9906 342° North 446 513 38,200  Level Aus ATC (RADAR)
Fri 09:41:15 PM -20.8691 150.9802 342° North 446 513 38,200  Level Aus ATC (RADAR)
Fri 09:41:50 PM -20.8004 150.9563 342° North 446 513 38,200  Level Aus ATC (RADAR)
Fri 09:42:40 PM -20.7030 150.9219 342° North 444 511 38,200  Level Aus ATC (RADAR)
Fri 09:43:15 PM -20.6346 150.8977 342° North 445 512 38,200  Level Aus ATC (RADAR)
Fri 09:44:15 PM -20.5176 150.8568 342° North 444 511 38,200  Level Aus ATC (RADAR)
Fri 09:44:50 PM -20.4492 150.8330 342° North 444 511 38,200  Level Aus ATC (RADAR)
Fri 09:45:45 PM -20.3438 150.7961 342° North 434 499 38,200  Level Aus ATC (RADAR)
Fri 09:46:00 PM -20.3158 150.7861 342° North 431 496 38,200  Level Aus ATC (RADAR)
Fri 09:46:35 PM -20.2499 150.7634 342° North 428 493 38,200  Level Aus ATC (RADAR)
Fri 09:47:35 PM -20.1371 150.7237 342° North 428 493 38,200  Level Aus ATC (RADAR)
Fri 09:48:09 PM -20.0715 150.7010 342° North 426 490 38,200  Level Aus ATC (RADAR)
Fri 09:49:04 PM -19.9694 150.6660 342° North 423 487 38,200  Level Aus ATC (RADAR)
Fri 09:49:39 PM -19.9037 150.6433 342° North 427 491 38,200  Level Aus ATC (RADAR)
Fri 09:50:49 PM -19.7729 150.5982 342° North 416 479 38,200  Level Aus ATC (RADAR)
Fri 09:51:04 PM -19.7441 150.5880 342° North 424 488 38,200  Level Aus ATC (RADAR)
Fri 09:51:39 PM -19.6781 150.5649 342° North 428 493 38,200  Level Aus ATC (RADAR)
Fri 09:52:34 PM -19.5744 150.5292 342° North 425 489 38,200  Level Aus ATC (RADAR)
Fri 09:53:09 PM -19.5086 150.5069 342° North 425 489 38,200  Level Aus ATC (RADAR)
Fri 09:54:09 PM -19.3961 150.4681 342° North 426 490 38,200  Level Aus ATC (RADAR)
Fri 09:54:44 PM -19.3307 150.4455 342° North 424 488 38,200  Level Aus ATC (RADAR)
Fri 09:55:54 PM -19.1991 150.4002 342° North 429 494 38,200  Level Aus ATC (RADAR)
Fri 09:56:09 PM -19.1713 150.3904 342° North 427 491 38,200  Level Aus ATC (RADAR)
Fri 09:56:44 PM -19.1057 150.3681 342° North 421 484 38,200  Level Aus ATC (RADAR)
Fri 09:57:44 PM -18.9927 150.3296 342° North 425 489 38,200  Level Aus ATC (RADAR)
Fri 09:58:19 PM -18.9281 150.3075 342° North 420 483 38,200  Level Aus ATC (RADAR)
Fri 09:59:23 PM -18.8058 150.2655 342° North 425 489 38,200  Level Aus ATC (RADAR)
Fri 09:59:59 PM -18.7401 150.2430 342° North 426 490 38,200  Level Aus ATC (RADAR)
Fri 10:00:58 PM -18.6278 150.2049 342° North 425 489 38,200  Level Aus ATC (RADAR)
Fri 10:01:13 PM -18.6001 150.1952 342° North 422 486 38,200  Level Aus ATC (RADAR)
Fri 10:01:48 PM -18.5346 150.1730 342° North 424 488 38,200  Level Aus ATC (RADAR)
Fri 10:02:48 PM -18.4222 150.1346 342° North 423 487 38,200  Level Aus ATC (RADAR)
Fri 10:03:23 PM -18.3565 150.1125 342° North 424 488 38,200  Level Aus ATC (RADAR)
Fri 10:04:23 PM -18.2434 150.0738 342° North 426 490 38,200  Level Aus ATC (RADAR)
Fri 10:05:03 PM -18.1684 150.0486 342° North 426 490 38,200 -207 Level Aus ATC (RADAR)
Fri 10:05:21 PM -18.1180 150.0310 342° North 424 488 38,000  Descending FlightAware ADS-B
Fri 10:06:03 PM -18.0558 150.0103 343° North 426 490 38,200 211 Climbing Aus ATC (RADAR)
Fri 10:06:18 PM -18.0279 150.0011 342° North 424 488 38,200  Level Aus ATC (RADAR)
Fri 10:06:53 PM -17.9622 149.9788 342° North 424 488 38,200  Level Aus ATC (RADAR)
Fri 10:07:53 PM -17.8497 149.9410 342° North 424 488 38,200  Level Aus ATC (RADAR)
Fri 10:08:28 PM -17.7839 149.9187 342° North 426 490 38,200  Level Aus ATC (RADAR)
Fri 10:09:38 PM -17.6510 149.8736 342° North 431 496 38,200  Level Aus ATC (RADAR)
Fri 10:10:28 PM -17.5554 149.8415 342° North 433 498 38,200  Level Aus ATC (RADAR)
Fri 10:11:12 PM -17.4696 149.8122 343° North 433 498 38,200  Level Aus ATC (RADAR)
Fri 10:11:47 PM -17.4030 149.7904 342° North 431 496 38,200  Level Aus ATC (RADAR)
Fri 10:12:52 PM -17.2787 149.7483 342° North 435 501 38,200  Level Aus ATC (RADAR)
Fri 10:13:27 PM -17.2114 149.7260 341° North 435 501 38,200 -67 Level Aus ATC (RADAR)
Fri 10:14:22 PM -17.1025 149.6877 342° North 447 514 38,100 -67 Descending Aus ATC (RADAR)
Fri 10:14:57 PM -17.0331 149.6642 343° North 450 518 38,100  Level Aus ATC (RADAR)
Fri 10:16:07 PM -16.9008 149.6208 343° North 434 499 38,100  Level Aus ATC (RADAR)
Fri 10:16:22 PM -16.8718 149.6114 342° North 435 501 38,100  Level Aus ATC (RADAR)
Fri 10:17:02 PM -16.7947 149.5856 342° North 435 501 38,100  Level Aus ATC (RADAR)
Fri 10:18:02 PM -16.6795 149.5472 342° North 433 498 38,100  Level Aus ATC (RADAR)
Fri 10:18:42 PM -16.6020 149.5212 342° North 437 503 38,100  Level Aus ATC (RADAR)
Fri 10:19:42 PM -16.4851 149.4824 342° North 441 507 38,100  Level Aus ATC (RADAR)
Fri 10:20:17 PM -16.4174 149.4597 342° North 439 505 38,100  Level Aus ATC (RADAR)
Fri 10:21:17 PM -16.3010 149.4209 342° North 440 506 38,100  Level Aus ATC (RADAR)
Fri 10:21:37 PM -16.2621 149.4081 342° North 439 505 38,100  Level Aus ATC (RADAR)
Fri 10:22:11 PM -16.1947 149.3855 342° North 437 503 38,100  Level Aus ATC (RADAR)
Fri 10:23:16 PM -16.0694 149.3436 343° North 437 503 38,100  Level Aus ATC (RADAR)
Fri 10:23:56 PM -15.9905 149.3179 342° North 439 505 38,100  Level Aus ATC (RADAR)
Fri 10:24:46 PM -15.8924 149.2851 342° North 442 509 38,100  Level Aus ATC (RADAR)
Fri 10:25:26 PM -15.8161 149.2598 342° North 438 504 38,100  Level Aus ATC (RADAR)
Fri 10:27:16 PM -15.5987 149.1879 343° North 450 518 38,100  Level Aus ATC (RADAR)
Fri 10:28:16 PM -15.4810 149.1496 343° North 442 509 38,100  Level Aus ATC (RADAR)
Fri 10:28:51 PM -15.4124 149.1275 342° North 444 511 38,100  Level Aus ATC (RADAR)
Fri 10:29:51 PM -15.2960 149.0889 343° North 439 505 38,100  Level Aus ATC (RADAR)
Fri 10:30:26 PM -15.2273 149.0668 342° North 441 507 38,100  Level Aus ATC (RADAR)
Fri 10:31:36 PM -15.0903 149.0217 343° North 441 507 38,100  Level Aus ATC (RADAR)
Fri 10:31:51 PM -15.0608 149.0123 342° North 442 509 38,100  Level Aus ATC (RADAR)
Fri 10:32:31 PM -14.9820 148.9862 343° North 443 510 38,100  Level Aus ATC (RADAR)
Fri 10:33:40 PM -14.8445 148.9419 342° North 444 511 38,100  Level Aus ATC (RADAR)
Fri 10:34:15 PM -14.7761 148.9192 343° North 442 509 38,100  Level Aus ATC (RADAR)
Fri 10:35:10 PM -14.6702 148.8851 342° North 436 502 38,100  Level Aus ATC (RADAR)
Fri 10:35:45 PM -14.5992 148.8609 343° North 446 513 38,100  Level Aus ATC (RADAR)
Fri 10:36:55 PM -14.4662 148.8198 342° North 435 501 38,100  Level Aus ATC (RADAR)
Fri 10:38:45 PM -14.2454 148.7457 344° North 466 536 38,100  Level Aus ATC (RADAR)
Fri 10:39:20 PM -14.1789 148.7257 343° North 448 516 38,100  Level Aus ATC (RADAR)
Fri 10:40:20 PM -14.0613 148.6880 343° North 443 510 38,100  Level Aus ATC (RADAR)
Fri 10:40:55 PM -13.9924 148.6660 342° North 442 509 38,100  Level Aus ATC (RADAR)
Fri 10:41:55 PM -13.8735 148.6272 343° North 444 511 38,100  Level Aus ATC (RADAR)
Fri 10:42:10 PM -13.8443 148.6180 343° North 443 510 38,100  Level Aus ATC (RADAR)
Fri 10:42:45 PM -13.7759 148.5965 343° North 441 507 38,100 -67 Level Aus ATC (RADAR)
Fri 10:43:40 PM -13.6683 148.5618 346° North 440 506 38,000 Descending Aus ATC (RADAR)
Fri 10:46:45 PM -13.2709 148.4322 346° North 38,000 Level Aus ATC (Calculated)
Fri 10:51:00 PM -12.7739 148.2896 346° North  Level FlightAware Approximate
Fri 10:52:00 PM -12.6569 148.2561 346° North  Level FlightAware Approximate
Fri 10:53:00 PM -12.5400 148.2226 346° North  Level FlightAware Approximate
Fri 10:54:00 PM -12.4230 148.1892 346° North  Level FlightAware Approximate
Fri 10:55:00 PM -12.3061 148.1558 346° North  Level FlightAware Approximate
Fri 10:56:00 PM -12.1891 148.1225 346° North  Level FlightAware Approximate
Fri 10:57:00 PM -12.0721 148.0891 346° North  Level FlightAware Approximate
Fri 10:58:00 PM -11.9781 148.0135 346° North  Level FlightAware Approximate
Fri 10:59:00 PM -11.8394 147.9719 346° North 38,000  Level Aus ATC (Calculated)
Fri 11:00:00 PM -11.7213 147.9431 346° North  Level FlightAware Approximate
Fri 11:01:00 PM -11.6032 147.9144 346° North  Level FlightAware Approximate
Fri 11:02:00 PM -11.4851 147.8857 346° North  Level FlightAware Approximate
Fri 11:03:00 PM -11.3670 147.8569 346° North  Level FlightAware Approximate
Fri 11:04:00 PM -11.2488 147.8282 346° North  Level FlightAware Approximate
Fri 11:05:00 PM -11.1307 147.7996 346° North  Level FlightAware Approximate
Fri 11:06:00 PM -11.0126 147.7710 346° North  Level FlightAware Approximate
Fri 11:07:00 PM -10.8945 147.7423 346° North  Level FlightAware Approximate
Fri 11:08:00 PM -10.7763 147.7137 346° North  Level FlightAware Approximate
Fri 11:09:00 PM -10.6582 147.6852 346° North  Level FlightAware Approximate
Fri 11:10:00 PM -10.5400 147.6566 346° North  Level FlightAware Approximate
Fri 11:11:00 PM -10.4219 147.6281 346° North  Level FlightAware Approximate
Fri 11:12:00 PM -10.3038 147.5996 346° North  Level FlightAware Approximate
Fri 11:13:00 PM -10.1856 147.5711 346° North  Level FlightAware Approximate
Fri 11:14:00 PM -10.0674 147.5427 346° North  Level FlightAware Approximate
Fri 11:15:00 PM -9.9493 147.5142 346° North  Level FlightAware Approximate
Fri 11:16:00 PM -9.8311 147.4858 346° North  Level FlightAware Approximate
Fri 11:17:00 PM -9.7108 147.4690 346° North  Level FlightAware Approximate
Fri 11:18:00 PM -9.5905 147.4523 346° North  Level FlightAware Approximate
Fri 11:19:00 PM -9.4702 147.4355 346° North  Level FlightAware Approximate
Fri 11:20:00 PM -9.3499 147.4188 346° North  Level FlightAware Approximate
Fri 11:21:00 PM -9.2296 147.4021 346° North  Level FlightAware Approximate
Fri 11:22:00 PM -9.1093 147.3853 346° North  Level FlightAware Approximate
Fri 11:23:00 PM -8.9890 147.3686 346° North  Level FlightAware Approximate
Fri 11:24:00 PM -8.8687 147.3519 346° North  Level FlightAware Approximate
Fri 11:25:00 PM -8.7484 147.3353 346° North  Level FlightAware Approximate
Fri 11:26:00 PM -8.6281 147.3186 346° North  Level FlightAware Approximate
Fri 11:27:00 PM -8.5078 147.3020 346° North  Level FlightAware Approximate
Fri 11:28:00 PM -8.3875 147.2853 346° North  Level FlightAware Approximate
Fri 11:29:00 PM -8.2672 147.2687 346° North  Level FlightAware Approximate
Fri 11:30:00 PM -8.1469 147.2520 346° North  Level FlightAware Approximate
Fri 11:31:00 PM -8.0266 147.2354 346° North  Level FlightAware Approximate
Fri 11:32:00 PM -7.9063 147.2188 346° North  Level FlightAware Approximate
Fri 11:33:00 PM -7.7860 147.2022 346° North  Level FlightAware Approximate
Fri 11:34:00 PM -7.6656 147.1856 346° North  Level FlightAware Approximate
Fri 11:35:00 PM -7.5453 147.1691 346° North  Level FlightAware Approximate
Fri 11:36:00 PM -7.4250 147.1525 346° North  Level FlightAware Approximate
Fri 11:37:00 PM -7.3047 147.1359 346° North  Level FlightAware Approximate
Fri 11:38:00 PM -7.1844 147.1194 346° North  Level FlightAware Approximate
Fri 11:39:00 PM -7.0641 147.1028 346° North  Level FlightAware Approximate
Fri 11:40:00 PM -6.9438 147.0863 346° North  Level FlightAware Approximate
Fri 11:41:00 PM -6.8235 147.0698 346° North  Level FlightAware Approximate
Fri 11:42:00 PM -6.7032 147.0533 346° North  Level FlightAware Approximate
Fri 11:43:00 PM -6.5825 147.0392 346° North  Level FlightAware Approximate
Fri 11:44:00 PM -6.4619 147.0252 346° North  Level FlightAware Approximate
Fri 11:45:00 PM -6.3413 147.0112 345° North  Level FlightAware Approximate
Fri 11:46:00 PM -6.2206 146.9973 345° North  Level FlightAware Approximate
Fri 11:47:00 PM -6.1000 146.9833 345° North  Level FlightAware Approximate
Fri 11:48:00 PM -5.9794 146.9693 345° North  Level FlightAware Approximate
Fri 11:49:00 PM -5.8587 146.9553 345° North  Level FlightAware Approximate
Fri 11:50:00 PM -5.7381 146.9413 345° North  Level FlightAware Approximate
Fri 11:51:00 PM -5.6175 146.9274 345° North  Level FlightAware Approximate
Fri 11:52:00 PM -5.4969 146.9134 345° North  Level FlightAware Approximate
Fri 11:53:00 PM -5.3762 146.8995 345° North  Level FlightAware Approximate
Fri 11:54:00 PM -5.2556 146.8855 345° North  Level FlightAware Approximate
Fri 11:55:00 PM -5.1350 146.8716 345° North  Level FlightAware Approximate
Fri 11:56:00 PM -5.0143 146.8576 345° North  Level FlightAware Approximate
Fri 11:57:00 PM -4.8937 146.8437 345° North  Level FlightAware Approximate
Fri 11:58:00 PM -4.7731 146.8298 345° North  Level FlightAware Approximate
Fri 11:59:00 PM -4.6525 146.8159 345° North  Level FlightAware Approximate
Sat 12:00:00 AM -4.5318 146.8019 345° North  Level FlightAware Approximate
Sat 12:01:00 AM -4.4112 146.7880 345° North  Level FlightAware Approximate
Sat 12:02:00 AM -4.2906 146.7741 345° North  Level FlightAware Approximate
Sat 12:03:00 AM -4.1699 146.7602 345° North  Level FlightAware Approximate
Sat 12:04:00 AM -4.0493 146.7463 345° North  Level FlightAware Approximate
Sat 12:05:00 AM -3.9287 146.7324 345° North  Level FlightAware Approximate
Sat 12:06:00 AM -3.8080 146.7185 345° North  Level FlightAware Approximate
Sat 12:07:00 AM -3.6874 146.7047 345° North  Level FlightAware Approximate
Sat 12:08:00 AM -3.5668 146.6908 345° North  Level FlightAware Approximate
Sat 12:09:00 AM -3.4461 146.6769 345° North  Level FlightAware Approximate
Sat 12:10:00 AM -3.3255 146.6630 345° North  Level FlightAware Approximate
Sat 12:11:00 AM -3.2048 146.6491 345° North  Level FlightAware Approximate
Sat 12:12:00 AM -3.0842 146.6353 345° North  Level FlightAware Approximate
Sat 12:13:00 AM -2.9636 146.6214 345° North  Level FlightAware Approximate
Sat 12:14:00 AM -2.8429 146.6075 345° North  Level FlightAware Approximate
Sat 12:15:00 AM -2.7223 146.5936 345° North  Level FlightAware Approximate
Sat 12:16:00 AM -2.6016 146.5798 345° North  Level FlightAware Approximate
Sat 12:17:00 AM -2.4810 146.5659 345° North  Level FlightAware Approximate
Sat 12:18:00 AM -2.3604 146.5521 345° North  Level FlightAware Approximate
Sat 12:19:00 AM -2.2397 146.5382 345° North  Level FlightAware Approximate
Sat 12:20:00 AM -2.1191 146.5244 345° North  Level FlightAware Approximate
Sat 12:21:00 AM -1.9984 146.5105 345° North  Level FlightAware Approximate
Sat 12:22:00 AM -1.8778 146.4967 345° North  Level FlightAware Approximate
Sat 12:23:00 AM -1.7572 146.4828 345° North  Level FlightAware Approximate
Sat 12:24:00 AM -1.6365 146.4690 345° North  Level FlightAware Approximate
Sat 12:25:00 AM -1.5159 146.4552 345° North  Level FlightAware Approximate
Sat 12:26:00 AM -1.3952 146.4413 345° North  Level FlightAware Approximate
Sat 12:27:00 AM -1.2746 146.4275 345° North  Level FlightAware Approximate
Sat 12:28:00 AM -1.1540 146.4136 345° North  Level FlightAware Approximate
Sat 12:29:00 AM -1.0333 146.3998 344° North  Level FlightAware Approximate
Sat 12:30:00 AM -0.9127 146.3860 344° North  Level FlightAware Approximate
Sat 12:31:00 AM -0.7920 146.3721 344° North  Level FlightAware Approximate
Sat 12:32:00 AM -0.6714 146.3583 344° North  Level FlightAware Approximate
Sat 12:33:00 AM -0.5508 146.3445 344° North  Level FlightAware Approximate
Sat 12:34:00 AM -0.4301 146.3306 344° North  Level FlightAware Approximate
Sat 12:35:00 AM -0.3095 146.3168 344° North  Level FlightAware Approximate
Sat 12:36:00 AM -0.1888 146.3030 344° North  Level FlightAware Approximate
Sat 12:37:00 AM -0.0682 146.2891 344° North  Level FlightAware Approximate
Sat 12:38:00 AM 0.0526 146.2767 344° North  Level FlightAware Approximate
Sat 12:39:00 AM 0.1734 146.2644 344° North  Level FlightAware Approximate
Sat 12:40:00 AM 0.2942 146.2520 344° North  Level FlightAware Approximate
Sat 12:41:00 AM 0.4150 146.2396 344° North  Level FlightAware Approximate
Sat 12:42:00 AM 0.5358 146.2272 344° North  Level FlightAware Approximate
Sat 12:43:00 AM 0.6566 146.2149 344° North  Level FlightAware Approximate
Sat 12:44:00 AM 0.7774 146.2025 344° North  Level FlightAware Approximate
Sat 12:45:00 AM 0.8982 146.1901 344° North  Level FlightAware Approximate
Sat 12:46:00 AM 1.0190 146.1777 344° North  Level FlightAware Approximate
Sat 12:47:00 AM 1.1398 146.1654 344° North  Level FlightAware Approximate
Sat 12:48:00 AM 1.2606 146.1530 344° North  Level FlightAware Approximate
Sat 12:49:00 AM 1.3814 146.1406 344° North  Level FlightAware Approximate
Sat 12:50:00 AM 1.5022 146.1283 344° North  Level FlightAware Approximate
Sat 12:51:00 AM 1.6230 146.1159 344° North  Level FlightAware Approximate
Sat 12:52:00 AM 1.7438 146.1035 344° North  Level FlightAware Approximate
Sat 12:53:00 AM 1.8646 146.0911 344° North  Level FlightAware Approximate
Sat 12:54:00 AM 1.9854 146.0787 344° North  Level FlightAware Approximate
Sat 12:55:00 AM 2.1062 146.0663 344° North  Level FlightAware Approximate
Sat 12:56:00 AM 2.2270 146.0540 344° North  Level FlightAware Approximate
Sat 12:57:00 AM 2.3478 146.0416 344° North  Level FlightAware Approximate
Sat 12:58:00 AM 2.4686 146.0292 344° North  Level FlightAware Approximate
Sat 12:59:00 AM 2.5894 146.0168 344° North  Level FlightAware Approximate
Sat 01:00:00 AM 2.7102 146.0044 343° North  Level FlightAware Approximate
Sat 01:01:00 AM 2.8310 145.9920 343° North  Level FlightAware Approximate
Sat 01:02:00 AM 2.9518 145.9796 343° North  Level FlightAware Approximate
Sat 01:03:00 AM 3.0726 145.9672 343° North  Level FlightAware Approximate
Sat 01:04:00 AM 3.1934 145.9548 343° North  Level FlightAware Approximate
Sat 01:05:00 AM 3.3142 145.9424 343° North  Level FlightAware Approximate
Sat 01:06:00 AM 3.4350 145.9300 343° North  Level FlightAware Approximate
Sat 01:07:00 AM 3.5558 145.9176 343° North  Level FlightAware Approximate
Sat 01:08:00 AM 3.6765 145.9051 343° North  Level FlightAware Approximate
Sat 01:09:00 AM 3.7973 145.8927 343° North  Level FlightAware Approximate
Sat 01:10:00 AM 3.9181 145.8803 343° North  Level FlightAware Approximate
Sat 01:11:00 AM 4.0389 145.8679 343° North  Level FlightAware Approximate
Sat 01:12:00 AM 4.1597 145.8554 343° North  Level FlightAware Approximate
Sat 01:13:00 AM 4.2805 145.8430 343° North  Level FlightAware Approximate
Sat 01:14:00 AM 4.4013 145.8306 343° North  Level FlightAware Approximate
Sat 01:15:00 AM 4.5221 145.8181 343° North  Level FlightAware Approximate
Sat 01:16:00 AM 4.6429 145.8057 343° North  Level FlightAware Approximate
Sat 01:17:00 AM 4.7637 145.7932 343° North  Level FlightAware Approximate
Sat 01:18:00 AM 4.8844 145.7808 343° North  Level FlightAware Approximate
Sat 01:19:00 AM 5.0052 145.7683 343° North  Level FlightAware Approximate
Sat 01:20:00 AM 5.1259 145.7542 343° North  Level FlightAware Approximate
Sat 01:21:00 AM 5.2465 145.7401 343° North  Level FlightAware Approximate
Sat 01:22:00 AM 5.3671 145.7259 343° North  Level FlightAware Approximate
Sat 01:23:00 AM 5.4877 145.7118 343° North  Level FlightAware Approximate
Sat 01:24:00 AM 5.6083 145.6977 342° North  Level FlightAware Approximate
Sat 01:25:00 AM 5.7289 145.6835 342° North  Level FlightAware Approximate
Sat 01:26:00 AM 5.8495 145.6694 342° North  Level FlightAware Approximate
Sat 01:27:00 AM 5.9701 145.6552 342° North  Level FlightAware Approximate
Sat 01:28:00 AM 6.0907 145.6411 342° North  Level FlightAware Approximate
Sat 01:29:00 AM 6.2113 145.6269 342° North  Level FlightAware Approximate
Sat 01:30:00 AM 6.3320 145.6127 342° North  Level FlightAware Approximate
Sat 01:31:00 AM 6.4526 145.5985 342° North  Level FlightAware Approximate
Sat 01:32:00 AM 6.5732 145.5843 342° North  Level FlightAware Approximate
Sat 01:33:00 AM 6.6938 145.5701 342° North  Level FlightAware Approximate
Sat 01:34:00 AM 6.8144 145.5559 342° North  Level FlightAware Approximate
Sat 01:35:00 AM 6.9350 145.5417 342° North  Level FlightAware Approximate
Sat 01:36:00 AM 7.0556 145.5275 342° North  Level FlightAware Approximate
Sat 01:37:00 AM 7.1762 145.5133 342° North  Level FlightAware Approximate
Sat 01:38:00 AM 7.2968 145.4991 342° North  Level FlightAware Approximate
Sat 01:39:00 AM 7.4174 145.4848 342° North  Level FlightAware Approximate
Sat 01:40:00 AM 7.5380 145.4706 342° North  Level FlightAware Approximate
Sat 01:41:00 AM 7.6586 145.4563 342° North  Level FlightAware Approximate
Sat 01:42:00 AM 7.7792 145.4420 342° North  Level FlightAware Approximate
Sat 01:43:00 AM 7.8998 145.4278 342° North  Level FlightAware Approximate
Sat 01:44:00 AM 8.0204 145.4135 341° North  Level FlightAware Approximate
Sat 01:45:00 AM 8.1410 145.3992 341° North  Level FlightAware Approximate
Sat 01:46:00 AM 8.2616 145.3849 341° North  Level FlightAware Approximate
Sat 01:47:00 AM 8.3822 145.3706 341° North  Level FlightAware Approximate
Sat 01:48:00 AM 8.5028 145.3563 341° North  Level FlightAware Approximate
Sat 01:49:00 AM 8.6234 145.3419 341° North  Level FlightAware Approximate
Sat 01:50:00 AM 8.7440 145.3276 341° North  Level FlightAware Approximate
Sat 01:51:00 AM 8.8646 145.3133 341° North  Level FlightAware Approximate
Sat 01:52:00 AM 8.9852 145.2989 341° North  Level FlightAware Approximate
Sat 01:53:00 AM 9.1058 145.2845 341° North  Level FlightAware Approximate
Sat 01:54:00 AM 9.2264 145.2702 341° North  Level FlightAware Approximate
Sat 01:55:00 AM 9.3470 145.2558 341° North  Level FlightAware Approximate
Sat 01:56:00 AM 9.4676 145.2414 341° North  Level FlightAware Approximate
Sat 01:57:00 AM 9.5882 145.2270 341° North  Level FlightAware Approximate
Sat 01:58:00 AM 9.7088 145.2126 341° North  Level FlightAware Approximate
Sat 01:59:00 AM 9.8294 145.1982 341° North  Level FlightAware Approximate
Sat 02:00:00 AM 9.9500 145.1837 341° North  Level FlightAware Approximate
Sat 02:01:00 AM 10.0706 145.1693 340° North  Level FlightAware Approximate
Sat 02:02:00 AM 10.1912 145.1548 340° North  Level FlightAware Approximate
Sat 02:03:00 AM 10.3118 145.1404 340° North  Level FlightAware Approximate
Sat 02:04:00 AM 10.4323 145.1259 340° North  Level FlightAware Approximate
Sat 02:05:00 AM 10.5529 145.1114 340° North  Level FlightAware Approximate
Sat 02:06:00 AM 10.6735 145.0969 340° North  Level FlightAware Approximate
Sat 02:07:00 AM 10.7941 145.0824 340° North  Level FlightAware Approximate
Sat 02:08:00 AM 10.9147 145.0679 340° North  Level FlightAware Approximate
Sat 02:09:00 AM 11.0353 145.0533 340° North  Level FlightAware Approximate
Sat 02:10:00 AM 11.1559 145.0388 340° North  Level FlightAware Approximate
Sat 02:11:00 AM 11.2765 145.0242 340° North  Level FlightAware Approximate
Sat 02:12:00 AM 11.3971 145.0096 340° North  Level FlightAware Approximate
Sat 02:13:00 AM 11.5176 144.9951 340° North  Level FlightAware Approximate
Sat 02:14:00 AM 11.6382 144.9805 340° North  Level FlightAware Approximate
Sat 02:15:00 AM 11.7588 144.9659 340° North  Level FlightAware Approximate
Sat 02:16:00 AM 11.8678 144.9893 339° North  Level FlightAware Approximate
Sat 02:17:00 AM 11.9877 144.9700 339° North  Level FlightAware Approximate
Sat 02:18:00 AM 12.1076 144.9507 339° North  Level FlightAware Approximate
Sat 02:19:00 AM 12.2276 144.9314 339° North  Level FlightAware Approximate
Sat 02:20:00 AM 12.3476 144.9120 339° North  Level FlightAware Approximate
Sat 02:21:00 AM 12.4675 144.8927 339° North  Level FlightAware Approximate
Sat 02:22:00 AM 12.5875 144.8733 339° North  Level FlightAware Approximate
Sat 02:23:00 AM 12.7074 144.8539 339° North  Level FlightAware Approximate
Sat 02:24:00 AM 12.8256 144.8277 339° North  Level FlightAware Approximate
Sat 02:25:00 AM 12.9395 144.7844 339° North  Level Estimated
Sat 02:26:00 AM 13.8233 144.4470 339° North  Level FlightAware Approximate
Sat 02:27:00 AM 13.9371 144.4034 339° North  Level Estimated
Sat 02:28:00 AM 14.0401 144.3638 339° North  Level FlightAware Approximate
Sat 02:29:00 AM 14.1538 144.3201 339° North  Level Estimated
Sat 02:30:00 AM 14.2704 144.2753 339° North  Level FlightAware Approximate
Sat 02:31:00 AM 14.3841 144.2315 339° North  Level Estimated
Sat 02:32:00 AM 14.5006 144.1866 339° North  Level FlightAware Approximate
Sat 02:33:00 AM 14.6144 144.1427 339° North  Level Estimated
Sat 02:34:00 AM 14.7309 144.0977 339° North  Level FlightAware Approximate
Sat 02:35:00 AM 14.8446 144.0537 339° North  Level Estimated
Sat 02:36:00 AM 14.9611 144.0086 339° North  Level FlightAware Approximate
Sat 02:37:00 AM 15.0748 143.9645 339° North  Level Estimated
Sat 02:38:00 AM 15.1777 143.9245 339° North  Level FlightAware Approximate
Sat 02:39:00 AM 15.2914 143.8804 339° North  Level Estimated
Sat 02:40:00 AM 15.4078 143.8351 339° North  Level FlightAware Approximate
Sat 02:41:00 AM 15.5215 143.7908 338° Northwest  Level Estimated
Sat 02:42:00 AM 15.6379 143.7454 338° Northwest  Level FlightAware Approximate
Sat 02:43:00 AM 15.7516 143.7010 338° Northwest  Level Estimated
Sat 02:44:00 AM 15.8680 143.6555 338° Northwest  Level FlightAware Approximate
Sat 02:45:00 AM 15.9816 143.6110 338° Northwest  Level Estimated
Sat 02:46:00 AM 16.0980 143.5654 338° Northwest  Level FlightAware Approximate
Sat 02:47:00 AM 16.2116 143.5209 338° Northwest  Level Estimated
Sat 02:48:00 AM 16.3144 143.4805 338° Northwest  Level FlightAware Approximate
Sat 02:49:00 AM 16.4280 143.4358 338° Northwest  Level Estimated
Sat 02:50:00 AM 16.5444 143.3900 338° Northwest  Level FlightAware Approximate
Sat 02:51:00 AM 16.6580 143.3452 338° Northwest  Level Estimated
Sat 02:52:00 AM 16.7743 143.2993 338° Northwest  Level FlightAware Approximate
Sat 02:53:00 AM 16.8879 143.2544 338° Northwest  Level Estimated
Sat 02:54:00 AM 17.0042 143.2084 338° Northwest  Level FlightAware Approximate
Sat 02:55:00 AM 17.1177 143.1634 338° Northwest  Level Estimated
Sat 02:56:00 AM 17.2340 143.1172 338° Northwest  Level FlightAware Approximate
Sat 02:57:00 AM 17.3475 143.0721 338° Northwest  Level Estimated
Sat 02:58:00 AM 17.4503 143.0312 338° Northwest  Level FlightAware Approximate
Sat 02:59:00 AM 17.5638 142.9860 338° Northwest  Level Estimated
Sat 03:00:00 AM 17.6800 142.9396 338° Northwest  Level FlightAware Approximate
Sat 03:01:00 AM 17.7935 142.8943 338° Northwest  Level Estimated
Sat 03:02:00 AM 17.9097 142.8478 338° Northwest  Level FlightAware Approximate
Sat 03:03:00 AM 18.0232 142.8024 338° Northwest  Level Estimated
Sat 03:04:00 AM 18.1394 142.7558 338° Northwest  Level FlightAware Approximate
Sat 03:05:00 AM 18.2528 142.7102 338° Northwest  Level Estimated
Sat 03:06:00 AM 18.3690 142.6634 338° Northwest  Level FlightAware Approximate
Sat 03:07:00 AM 18.4824 142.6177 338° Northwest  Level Estimated
Sat 03:08:00 AM 18.5851 142.5763 338° Northwest  Level FlightAware Approximate
Sat 03:09:00 AM 18.6985 142.5305 338° Northwest  Level Estimated
Sat 03:10:00 AM 18.8146 142.4836 338° Northwest  Level FlightAware Approximate
Sat 03:11:00 AM 18.9280 142.4376 338° Northwest  Level Estimated
Sat 03:12:00 AM 19.0441 142.3905 338° Northwest  Level FlightAware Approximate
Sat 03:13:00 AM 19.1574 142.3445 338° Northwest  Level Estimated
Sat 03:14:00 AM 19.2735 142.2972 338° Northwest  Level FlightAware Approximate
Sat 03:15:00 AM 19.3868 142.2510 338° Northwest  Level Estimated
Sat 03:16:00 AM 19.5029 142.2037 338° Northwest  Level FlightAware Approximate
Sat 03:17:00 AM 19.6162 142.1573 338° Northwest  Level Estimated
Sat 03:18:00 AM 19.7188 142.1154 338° Northwest  Level FlightAware Approximate
Sat 03:19:00 AM 19.8320 142.0689 338° Northwest  Level Estimated
Sat 03:20:00 AM 19.9480 142.0213 338° Northwest  Level FlightAware Approximate
Sat 03:21:00 AM 20.0613 141.9747 338° Northwest  Level Estimated
Sat 03:22:00 AM 20.1773 141.9269 338° Northwest  Level FlightAware Approximate
Sat 03:23:00 AM 20.2905 141.8802 338° Northwest  Level Estimated
Sat 03:24:00 AM 20.4065 141.8323 338° Northwest  Level FlightAware Approximate
Sat 03:25:00 AM 20.5197 141.7854 337° Northwest  Level Estimated
Sat 03:26:00 AM 20.6356 141.7374 337° Northwest  Level FlightAware Approximate
Sat 03:27:00 AM 20.7488 141.6904 337° Northwest  Level Estimated
Sat 03:28:00 AM 20.8512 141.6478 337° Northwest  Level FlightAware Approximate
Sat 03:29:00 AM 20.9644 141.6007 337° Northwest  Level Estimated
Sat 03:30:00 AM 21.0803 141.5523 337° Northwest  Level FlightAware Approximate
Sat 03:31:00 AM 21.1934 141.5051 337° Northwest  Level Estimated
Sat 03:32:00 AM 21.3093 141.4566 337° Northwest  Level FlightAware Approximate
Sat 03:33:00 AM 21.4224 141.4091 337° Northwest  Level Estimated
Sat 03:34:00 AM 21.5382 141.3605 337° Northwest  Level FlightAware Approximate
Sat 03:35:00 AM 21.6513 141.3129 337° Northwest  Level Estimated
Sat 03:36:00 AM 21.7671 141.2641 337° Northwest  Level FlightAware Approximate
Sat 03:37:00 AM 21.8801 141.2164 337° Northwest  Level Estimated
Sat 03:38:00 AM 21.9825 141.1732 337° Northwest  Level FlightAware Approximate
Sat 03:39:00 AM 22.0955 141.1253 337° Northwest  Level Estimated
Sat 03:40:00 AM 22.2112 141.0762 337° Northwest  Level FlightAware Approximate
Sat 03:41:00 AM 22.3242 141.0282 337° Northwest  Level Estimated
Sat 03:42:00 AM 22.4399 140.9789 337° Northwest  Level FlightAware Approximate
Sat 03:43:00 AM 22.5529 140.9307 337° Northwest  Level Estimated
Sat 03:44:00 AM 22.6686 140.8813 337° Northwest  Level FlightAware Approximate
Sat 03:45:00 AM 22.7815 140.8330 337° Northwest  Level Estimated
Sat 03:46:00 AM 22.8972 140.7834 337° Northwest  Level FlightAware Approximate
Sat 03:47:00 AM 23.0101 140.7349 337° Northwest  Level Estimated
Sat 03:48:00 AM 23.1123 140.6909 337° Northwest  Level FlightAware Approximate
Sat 03:49:00 AM 23.2252 140.6422 337° Northwest  Level Estimated
Sat 03:50:00 AM 23.3407 140.5923 337° Northwest  Level FlightAware Approximate
Sat 03:51:00 AM 23.4536 140.5435 337° Northwest  Level Estimated
Sat 03:52:00 AM 23.5692 140.4934 337° Northwest  Level FlightAware Approximate
Sat 03:53:00 AM 23.6820 140.4444 337° Northwest  Level Estimated
Sat 03:54:00 AM 23.7975 140.3941 336° Northwest  Level FlightAware Approximate
Sat 03:55:00 AM 23.9103 140.3450 336° Northwest  Level Estimated
Sat 03:56:00 AM 24.0258 140.2945 336° Northwest  Level FlightAware Approximate
Sat 03:57:00 AM 24.1386 140.2452 336° Northwest  Level Estimated
Sat 03:58:00 AM 24.2406 140.2005 336° Northwest  Level FlightAware Approximate
Sat 03:59:00 AM 24.3533 140.1509 336° Northwest  Level Estimated
Sat 04:00:00 AM 24.4688 140.1001 336° Northwest  Level FlightAware Approximate
Sat 04:01:00 AM 24.5815 140.0504 336° Northwest  Level Estimated
Sat 04:02:00 AM 24.6969 139.9995 336° Northwest  Level FlightAware Approximate
Sat 04:03:00 AM 24.8095 139.9496 336° Northwest  Level Estimated
Sat 04:04:00 AM 24.9249 139.8984 336° Northwest  Level FlightAware Approximate
Sat 04:05:00 AM 25.0375 139.8484 336° Northwest  Level Estimated
Sat 04:06:00 AM 25.1395 139.8030 336° Northwest  Level FlightAware Approximate
Sat 04:07:00 AM 25.2521 139.7528 336° Northwest  Level Estimated
Sat 04:08:00 AM 25.3673 139.7012 336° Northwest  Level FlightAware Approximate
Sat 04:09:00 AM 25.4799 139.6508 336° Northwest  Level Estimated
Sat 04:10:00 AM 25.5952 139.5991 336° Northwest  Level FlightAware Approximate
Sat 04:11:00 AM 25.7077 139.5485 336° Northwest  Level Estimated
Sat 04:12:00 AM 25.8229 139.4965 336° Northwest  Level FlightAware Approximate
Sat 04:13:00 AM 25.9354 139.4457 335° Northwest  Level Estimated
Sat 04:14:00 AM 26.0506 139.3936 335° Northwest  Level FlightAware Approximate
Sat 04:15:00 AM 26.1631 139.3426 335° Northwest  Level Estimated
Sat 04:16:00 AM 26.2648 139.2963 335° Northwest  Level FlightAware Approximate
Sat 04:17:00 AM 26.3772 139.2451 335° Northwest  Level Estimated
Sat 04:18:00 AM 26.4924 139.1926 335° Northwest  Level FlightAware Approximate
Sat 04:19:00 AM 26.6047 139.1412 335° Northwest  Level Estimated
Sat 04:20:00 AM 26.7198 139.0885 335° Northwest  Level FlightAware Approximate
Sat 04:21:00 AM 26.8322 139.0369 335° Northwest  Level Estimated
Sat 04:22:00 AM 26.9472 138.9839 335° Northwest  Level FlightAware Approximate
Sat 04:23:00 AM 27.0595 138.9321 335° Northwest  Level Estimated
Sat 04:24:00 AM 27.1745 138.8790 335° Northwest  Level FlightAware Approximate
Sat 04:25:00 AM 27.2868 138.8269 335° Northwest  Level Estimated
Sat 04:26:00 AM 27.3884 138.7798 334° Northwest  Level FlightAware Approximate
Sat 04:27:00 AM 27.5006 138.7275 334° Northwest  Level Estimated
Sat 04:28:00 AM 27.6155 138.6740 334° Northwest  Level FlightAware Approximate
Sat 04:29:00 AM 27.7277 138.6215 334° Northwest  Level Estimated
Sat 04:30:00 AM 27.8426 138.5677 334° Northwest  Level FlightAware Approximate
Sat 04:31:00 AM 27.9548 138.5150 334° Northwest  Level Estimated
Sat 04:32:00 AM 28.0696 138.4610 334° Northwest  Level FlightAware Approximate
Sat 04:33:00 AM 28.1817 138.4081 334° Northwest  Level Estimated
Sat 04:34:00 AM 28.2965 138.3539 334° Northwest  Level FlightAware Approximate
Sat 04:35:00 AM 28.4086 138.3008 333° Northwest  Level Estimated
Sat 04:36:00 AM 28.5100 138.2526 333° Northwest  Level FlightAware Approximate
Sat 04:37:00 AM 28.6220 138.1993 333° Northwest  Level Estimated
Sat 04:38:00 AM 28.7367 138.1445 333° Northwest  Level FlightAware Approximate
Sat 04:39:00 AM 28.8487 138.0910 333° Northwest  Level Estimated
Sat 04:40:00 AM 28.9634 138.0360 333° Northwest  Level FlightAware Approximate
Sat 04:41:00 AM 29.0754 137.9823 332° Northwest  Level Estimated
Sat 04:42:00 AM 29.1900 137.9270 332° Northwest  Level FlightAware Approximate
Sat 04:43:00 AM 29.3019 137.8730 332° Northwest  Level Estimated
Sat 04:44:00 AM 29.4165 137.8176 332° Northwest  Level FlightAware Approximate
Sat 04:45:00 AM 29.5283 137.7633 332° Northwest  Level Estimated
Sat 04:46:00 AM 29.6295 137.7141 331° Northwest  Level FlightAware Approximate
Sat 04:47:00 AM 29.7414 137.6596 331° Northwest  Level Estimated
Sat 04:48:00 AM 29.8559 137.6037 331° Northwest  Level FlightAware Approximate
Sat 04:49:00 AM 29.9676 137.5489 330° Northwest  Level Estimated
Sat 04:50:00 AM 30.0821 137.4928 330° Northwest  Level FlightAware Approximate
Sat 04:51:00 AM 30.1938 137.4378 330° Northwest  Level Estimated
Sat 04:52:00 AM 30.3082 137.3813 329° Northwest  Level FlightAware Approximate
Sat 04:53:41 AM 32.1750 136.0640 332° Northwest 474 545 40,000  Level FlightAware ADS-B
Sat 05:05:06 AM 33.4590 135.2600 344° North 418 481 19,500 -1,422 Descending FlightAware ADS-B
Sat 05:16:49 AM 34.4120 134.9190 87° East 290 334 7,100 -1,058 Descending FlightAware ADS-B
Sat 05:24:00 AM 34.4586 135.9751 220° Southwest  Level Estimated
Sat 05:25:00 AM 33.9783 135.4878 336° Northwest  Level FlightAware Approximate
Sat 05:26:00 AM 34.0891 135.4279 336° Northwest  Level Estimated
Sat 05:27:00 AM 34.2026 135.3664 336° Northwest  Level FlightAware Approximate
Sat 05:28:00 AM 34.3134 135.3062 336° Northwest  Level Estimated
Sat 05:29:00 AM 34.4241 135.2458 336° Northwest  Level Estimated
Sat 05:30:00 AM 34.4273 135.2441 289° West  Level FlightAware Approximate
Sat 05:31:00 AM 34.4668 135.1049 109° East  Level Estimated
Sat 05:32:00 AM 34.4273 135.2441 289° West  Level FlightAware Approximate
Sat 05:33:00 AM 34.4668 135.1049 109° East  Level Estimated
Sat 05:34:00 AM 34.4273 135.2441 289° West  Level FlightAware Approximate
Sat 05:35:00 AM 34.4668 135.1049 109° East  Level Estimated
Sat 05:36:00 AM 34.4273 135.2441 289° West  Level FlightAware Approximate
Sat 05:37:00 AM 34.4668 135.1049 109° East  Level Estimated
Sat 05:38:00 AM 34.4273 135.2441 289° West  Level FlightAware Approximate
Sat 05:39:00 AM 34.4668 135.1049 109° East  Level Estimated
Sat 05:40:00 AM 34.4273 135.2441 289° West  Level FlightAware Approximate
Sat 05:41:00 AM 34.4668 135.1049 109° East  Level Estimated
Sat 05:42:00 AM 34.4273 135.2441 289° West  Level FlightAware Approximate
Sat 05:43:00 AM 34.4668 135.1049 109° East  Level Estimated
Sat 05:44:00 AM 34.4273 135.2441 289° West  Level FlightAware Approximate
Sat 05:45:00 AM 34.4668 135.1049 109° East  Level Estimated
Sat 05:46:00 AM 34.4273 135.2441 109° East  Level FlightAware Approximate

Login

Don't have an account? Register now (free) for customized features, flight alerts, and more!